createdAt,value
2022-12-18T00:01:48.874Z,7.65
2022-12-18T00:04:21.744Z,8.43
2022-12-18T00:06:49.440Z,8.23
2022-12-18T00:09:17.324Z,8.25
2022-12-18T00:11:44.787Z,7.78
2022-12-18T00:14:13.975Z,8.25
2022-12-18T00:16:44.096Z,7.38
2022-12-18T00:19:13.121Z,8.18
2022-12-18T00:21:44.317Z,7.70
2022-12-18T00:24:12.495Z,7.55
2022-12-18T00:26:40.875Z,7.63
2022-12-18T00:29:12.065Z,7.63
2022-12-18T00:31:40.730Z,7.75
2022-12-18T00:34:10.546Z,7.65
2022-12-18T00:36:42.668Z,7.97
2022-12-18T00:39:11.922Z,8.00
2022-12-18T00:41:39.517Z,7.43
2022-12-18T00:44:08.408Z,7.32
2022-12-18T00:46:35.821Z,8.27
2022-12-18T00:49:03.745Z,7.97
2022-12-18T00:51:31.277Z,7.32
2022-12-18T00:54:00.344Z,7.63
2022-12-18T00:56:27.774Z,7.40
2022-12-18T00:58:55.750Z,7.35
2022-12-18T01:01:23.652Z,7.05
2022-12-18T01:03:51.321Z,7.53
2022-12-18T01:06:18.793Z,8.05
2022-12-18T01:08:46.227Z,7.20
2022-12-18T01:11:22.233Z,7.50
2022-12-18T01:13:49.681Z,8.13
2022-12-18T01:16:18.218Z,8.10
2022-12-18T01:18:45.943Z,7.80
2022-12-18T01:21:15.791Z,7.47
2022-12-18T01:23:46.115Z,7.68
2022-12-18T01:26:17.133Z,7.95
2022-12-18T01:28:45.112Z,7.43
2022-12-18T01:31:14.715Z,7.55
2022-12-18T01:33:42.346Z,7.68
2022-12-18T01:36:16.873Z,7.82
2022-12-18T01:38:44.644Z,7.70
2022-12-18T01:41:12.230Z,8.40
2022-12-18T01:43:50.708Z,7.75
2022-12-18T01:46:20.169Z,8.65
2022-12-18T01:48:50.201Z,8.00
2022-12-18T01:51:18.159Z,7.30
2022-12-18T01:53:47.389Z,7.70
2022-12-18T01:56:17.243Z,7.75
2022-12-18T01:58:54.017Z,7.55
2022-12-18T02:01:23.047Z,7.50
2022-12-18T02:03:50.912Z,8.93
2022-12-18T02:06:22.624Z,8.00
2022-12-18T02:09:08.905Z,7.65
2022-12-18T02:11:45.963Z,7.82
2022-12-18T02:14:24.776Z,8.50
2022-12-18T02:17:02.322Z,7.88
2022-12-18T02:19:45.266Z,8.57
2022-12-18T02:22:27.705Z,8.82
2022-12-18T02:25:06.052Z,7.75
2022-12-18T02:27:37.936Z,8.25
2022-12-18T02:30:07.505Z,9.15
2022-12-18T02:32:38.961Z,8.20
2022-12-18T02:35:09.827Z,8.02
2022-12-18T02:37:42.136Z,8.43
2022-12-18T02:40:12.772Z,8.02
2022-12-18T02:42:41.728Z,8.70
2022-12-18T02:45:11.658Z,8.68
2022-12-18T02:47:42.634Z,8.32
2022-12-18T02:50:19.991Z,7.82
2022-12-18T02:53:00.852Z,9.13
2022-12-18T02:55:43.692Z,9.07
2022-12-18T02:58:19.353Z,8.50
2022-12-18T03:00:58.044Z,8.98
2022-12-18T03:03:30.405Z,9.82
2022-12-18T03:06:01.549Z,8.50
2022-12-18T03:08:32.801Z,8.68
2022-12-18T03:11:03.918Z,8.02
2022-12-18T03:13:39.244Z,8.25
2022-12-18T03:16:11.768Z,8.70
2022-12-18T03:18:44.644Z,8.60
2022-12-18T03:21:15.550Z,8.88
2022-12-18T03:23:50.197Z,9.45
2022-12-18T03:26:23.576Z,8.80
2022-12-18T03:29:01.060Z,8.32
2022-12-18T03:31:32.296Z,8.57
2022-12-18T03:34:04.613Z,7.70
2022-12-18T03:36:40.776Z,8.10
2022-12-18T03:39:09.104Z,8.07
2022-12-18T03:41:46.045Z,9.05
2022-12-18T03:44:30.502Z,9.73
2022-12-18T03:47:08.147Z,8.20
2022-12-18T03:49:41.663Z,8.45
2022-12-18T03:52:15.012Z,7.85
2022-12-18T03:54:44.266Z,8.02
2022-12-18T03:57:20.063Z,7.95
2022-12-18T03:59:54.711Z,8.20
2022-12-18T04:02:25.797Z,8.70
2022-12-18T04:04:57.020Z,8.13
2022-12-18T04:07:25.349Z,8.07
2022-12-18T04:09:57.665Z,7.88
2022-12-18T04:12:26.237Z,8.45
2022-12-18T04:14:55.535Z,8.27
2022-12-18T04:19:51.333Z,8.32
2022-12-18T04:22:19.127Z,8.75
2022-12-18T04:24:52.902Z,7.93
2022-12-18T04:27:30.581Z,8.32
2022-12-18T04:30:01.833Z,8.50
2022-12-18T04:32:31.241Z,8.38
2022-12-18T04:35:01.036Z,8.60
2022-12-18T04:37:28.609Z,8.90
2022-12-18T04:39:56.553Z,9.02
2022-12-18T04:42:32.553Z,8.18
2022-12-18T04:45:01.916Z,8.70
2022-12-18T04:47:29.360Z,8.93
2022-12-18T04:49:56.786Z,9.07
2022-12-18T04:52:24.657Z,8.40
2022-12-18T04:54:52.144Z,9.50
2022-12-18T04:57:19.857Z,9.43
2022-12-18T04:59:47.284Z,10.20
2022-12-18T05:02:16.365Z,9.60
2022-12-18T05:04:43.946Z,9.15
2022-12-18T05:07:11.365Z,9.93
2022-12-18T05:09:38.828Z,10.18
2022-12-18T05:12:06.793Z,9.07
2022-12-18T05:14:34.223Z,10.30
2022-12-18T05:17:01.717Z,9.23
2022-12-18T05:19:30.669Z,9.82
2022-12-18T05:21:58.154Z,9.30
2022-12-18T05:24:25.863Z,9.18
2022-12-18T05:26:53.453Z,8.57
2022-12-18T05:29:20.970Z,8.80
2022-12-18T05:31:48.462Z,9.77
2022-12-18T05:34:16.124Z,9.18
2022-12-18T05:36:45.143Z,9.43
2022-12-18T05:39:12.987Z,9.60
2022-12-18T05:41:41.303Z,10.15
2022-12-18T05:44:09.857Z,9.57
2022-12-18T05:46:38.123Z,10.10
2022-12-18T05:49:06.294Z,10.70
2022-12-18T05:51:34.557Z,8.95
2022-12-18T05:54:04.348Z,9.75
2022-12-18T05:56:34.011Z,8.73
2022-12-18T05:59:02.049Z,9.93
2022-12-18T06:01:30.988Z,9.90
2022-12-18T06:03:59.340Z,9.20
2022-12-18T06:06:28.968Z,8.90
2022-12-18T06:08:57.857Z,9.18
2022-12-18T06:11:27.793Z,8.95
2022-12-18T06:13:59.133Z,9.52
2022-12-18T06:16:27.518Z,9.15
2022-12-18T06:18:56.842Z,10.02
2022-12-18T06:21:24.827Z,9.35
2022-12-18T06:23:52.795Z,10.00
2022-12-18T06:26:27.626Z,8.68
2022-12-18T06:28:57.273Z,8.90
2022-12-18T06:31:25.887Z,8.43
2022-12-18T06:33:53.414Z,9.23
2022-12-18T06:36:20.850Z,9.23
2022-12-18T06:38:48.553Z,8.50
2022-12-18T06:41:18.465Z,9.13
2022-12-18T06:43:47.574Z,10.18
2022-12-18T06:46:17.044Z,9.60
2022-12-18T06:48:47.989Z,10.27
2022-12-18T06:51:18.680Z,9.80
2022-12-18T06:53:47.028Z,9.70
2022-12-18T06:56:15.341Z,9.48
2022-12-18T06:58:43.702Z,9.90
2022-12-18T07:01:13.188Z,9.55
2022-12-18T07:03:43.786Z,9.88
2022-12-18T07:06:16.716Z,8.95
2022-12-18T07:08:45.044Z,9.82
2022-12-18T07:11:13.285Z,10.38
2022-12-18T07:13:41.527Z,9.48
2022-12-18T07:16:17.411Z,10.02
2022-12-18T07:18:51.845Z,9.98
2022-12-18T07:21:21.223Z,9.80
2022-12-18T07:23:48.738Z,10.50
2022-12-18T07:26:18.516Z,9.85
2022-12-18T07:31:15.021Z,10.68
2022-12-18T07:33:42.976Z,10.65
2022-12-18T07:36:12.830Z,9.20
2022-12-18T07:38:40.714Z,8.98
2022-12-18T07:41:11.088Z,9.25
2022-12-18T07:43:40.936Z,9.38
2022-12-18T07:46:13.398Z,9.70
2022-12-18T07:48:42.712Z,10.38
2022-12-18T07:51:13.212Z,9.30
2022-12-18T07:53:42.587Z,9.40
2022-12-18T07:56:30.872Z,9.18
2022-12-18T07:59:00.028Z,10.43
2022-12-18T08:01:28.051Z,9.63
2022-12-18T08:03:55.817Z,10.55
2022-12-18T08:06:25.091Z,10.48
2022-12-18T08:08:53.812Z,9.40
2022-12-18T08:11:21.681Z,10.45
2022-12-18T08:13:49.588Z,8.88
2022-12-18T08:16:18.140Z,10.13
2022-12-18T08:18:45.968Z,10.10
2022-12-18T08:21:15.181Z,10.60
2022-12-18T08:23:44.343Z,9.65
2022-12-18T08:26:12.351Z,9.48
2022-12-18T08:28:40.258Z,9.55
2022-12-18T08:31:08.711Z,9.15
2022-12-18T08:33:38.077Z,9.57
2022-12-18T08:36:06.753Z,10.48
2022-12-18T08:38:34.528Z,9.70
2022-12-18T08:41:05.485Z,10.77
2022-12-18T08:43:32.964Z,9.82
2022-12-18T08:46:00.464Z,11.15
2022-12-18T08:48:28.020Z,9.65
2022-12-18T08:50:56.324Z,10.68
2022-12-18T08:53:36.095Z,10.15
2022-12-18T08:56:06.627Z,10.93
2022-12-18T08:58:34.152Z,11.30
2022-12-18T09:01:02.046Z,10.48
2022-12-18T09:03:29.969Z,10.90
2022-12-18T09:05:57.676Z,9.63
2022-12-18T09:08:25.140Z,10.90
2022-12-18T09:10:53.002Z,9.90
2022-12-18T09:13:21.898Z,10.50
2022-12-18T09:15:51.284Z,11.02
2022-12-18T09:18:20.042Z,10.20
2022-12-18T09:20:47.669Z,9.33
2022-12-18T09:23:15.571Z,9.90
2022-12-18T09:25:43.162Z,10.75
2022-12-18T09:28:13.647Z,8.65
2022-12-18T09:30:45.309Z,10.02
2022-12-18T09:33:12.884Z,10.07
2022-12-18T09:35:44.610Z,9.30
2022-12-18T09:38:14.647Z,9.70
2022-12-18T09:40:44.653Z,10.73
2022-12-18T09:43:18.296Z,9.77
2022-12-18T09:45:50.915Z,9.48
2022-12-18T09:48:24.229Z,9.98
2022-12-18T09:50:52.990Z,9.07
2022-12-18T09:53:23.828Z,9.77
2022-12-18T09:55:53.667Z,9.63
2022-12-18T09:58:30.820Z,9.40
2022-12-18T10:01:00.107Z,10.48
2022-12-18T10:03:28.534Z,9.63
2022-12-18T10:06:04.651Z,9.00
2022-12-18T10:08:43.612Z,10.23
2022-12-18T10:11:28.559Z,9.57
2022-12-18T10:14:02.401Z,9.45
2022-12-18T10:16:40.066Z,8.75
2022-12-18T10:19:26.074Z,8.65
2022-12-18T10:22:02.748Z,10.45
2022-12-18T10:24:39.294Z,9.07
2022-12-18T10:27:15.659Z,9.23
2022-12-18T10:29:46.535Z,9.55
2022-12-18T10:32:18.966Z,9.52
2022-12-18T10:34:47.882Z,9.30
2022-12-18T10:37:18.740Z,9.25
2022-12-18T10:39:46.633Z,9.23
2022-12-18T10:42:19.788Z,8.90
2022-12-18T10:44:47.356Z,8.98
2022-12-18T10:47:20.245Z,10.13
2022-12-18T10:49:54.019Z,10.02
2022-12-18T10:52:23.933Z,8.98
2022-12-18T10:54:54.325Z,8.95
2022-12-18T10:57:40.559Z,9.43
2022-12-18T11:00:29.125Z,10.10
2022-12-18T11:02:58.722Z,9.30
2022-12-18T11:05:29.465Z,9.38
2022-12-18T11:07:58.036Z,9.57
2022-12-18T11:10:29.987Z,10.23
2022-12-18T11:13:10.618Z,9.48
2022-12-18T11:15:41.693Z,10.93
2022-12-18T11:18:21.182Z,9.40
2022-12-18T11:20:58.474Z,9.65
2022-12-18T11:23:27.510Z,9.52
2022-12-18T11:25:58.141Z,9.82
2022-12-18T11:28:35.613Z,10.32
2022-12-18T11:31:23.414Z,10.25
2022-12-18T11:34:28.527Z,8.48
2022-12-18T11:36:59.258Z,8.85
2022-12-18T11:39:36.060Z,8.13
2022-12-18T11:42:12.258Z,9.70
2022-12-18T11:44:51.492Z,9.32
2022-12-18T11:47:27.441Z,9.80
2022-12-18T11:50:00.347Z,9.07
2022-12-18T11:52:32.322Z,8.80
2022-12-18T11:55:03.298Z,8.70
2022-12-18T11:57:39.410Z,9.48
2022-12-18T12:00:14.277Z,8.98
2022-12-18T12:03:01.884Z,9.38
2022-12-18T12:05:42.307Z,9.82
2022-12-18T12:08:17.269Z,10.40
2022-12-18T12:10:59.345Z,7.95
2022-12-18T12:13:44.203Z,10.00
2022-12-18T12:16:19.140Z,8.55
2022-12-18T12:19:07.741Z,9.15
2022-12-18T12:21:41.987Z,8.50
2022-12-18T12:24:24.958Z,8.35
2022-12-18T12:27:04.178Z,8.82
2022-12-18T12:29:44.387Z,9.57
2022-12-18T12:32:24.419Z,10.15
2022-12-18T12:35:09.397Z,8.80
2022-12-18T12:37:50.237Z,7.78
2022-12-18T12:40:51.433Z,9.32
2022-12-18T12:43:28.984Z,9.60
2022-12-18T12:46:07.574Z,8.80
2022-12-18T12:48:42.483Z,8.27
2022-12-18T12:51:17.224Z,9.20
2022-12-18T12:53:47.067Z,9.00
2022-12-18T12:58:52.153Z,8.38
2022-12-18T13:01:29.907Z,9.70
2022-12-18T13:04:09.887Z,9.63
2022-12-18T13:06:45.236Z,9.38
2022-12-18T13:09:16.230Z,9.65
2022-12-18T13:11:47.881Z,9.48
2022-12-18T13:14:23.705Z,8.55
2022-12-18T13:16:53.146Z,9.13
2022-12-18T13:19:25.202Z,8.25
2022-12-18T13:21:57.155Z,8.57
2022-12-18T13:24:28.908Z,8.85
2022-12-18T13:26:56.900Z,8.57
2022-12-18T13:29:45.389Z,8.88
2022-12-18T13:32:23.017Z,8.88
2022-12-18T13:35:25.621Z,8.55
2022-12-18T13:37:54.914Z,8.73
2022-12-18T13:40:55.162Z,8.10
2022-12-18T13:43:41.183Z,8.85
2022-12-18T13:46:25.937Z,8.70
2022-12-18T13:48:58.484Z,10.13
2022-12-18T13:51:27.585Z,9.57
2022-12-18T13:56:25.853Z,8.02
2022-12-18T13:59:19.553Z,8.85
2022-12-18T14:01:54.603Z,9.13
2022-12-18T14:04:26.973Z,9.45
2022-12-18T14:06:59.582Z,9.23
2022-12-18T14:09:31.120Z,9.00
2022-12-18T14:12:01.410Z,9.77
2022-12-18T14:14:33.627Z,9.00
2022-12-18T14:17:02.102Z,8.70
2022-12-18T14:19:35.635Z,8.95
2022-12-18T14:22:03.277Z,9.73
2022-12-18T14:24:30.779Z,8.10
2022-12-18T14:27:20.741Z,8.90
2022-12-18T14:29:50.039Z,8.63
2022-12-18T14:32:19.366Z,8.38
2022-12-18T14:34:48.912Z,8.80
2022-12-18T14:37:19.489Z,8.60
2022-12-18T14:39:55.700Z,8.98
2022-12-18T14:42:23.461Z,8.68
2022-12-18T14:45:13.458Z,9.52
2022-12-18T14:47:44.797Z,9.70
2022-12-18T14:50:15.312Z,8.85
2022-12-18T14:52:42.863Z,8.98
2022-12-18T14:55:17.473Z,8.75
2022-12-18T14:57:46.117Z,10.02
2022-12-18T15:00:20.837Z,9.52
2022-12-18T15:02:52.441Z,9.70
2022-12-18T15:05:25.706Z,7.90
2022-12-18T15:07:54.517Z,8.60
2022-12-18T15:10:24.513Z,9.80
2022-12-18T15:13:11.076Z,9.20
2022-12-18T15:15:50.695Z,8.73
2022-12-18T15:20:49.634Z,8.80
2022-12-18T15:23:20.640Z,9.10
2022-12-18T15:25:49.701Z,8.90
2022-12-18T15:28:24.741Z,8.75
2022-12-18T15:31:05.867Z,9.02
2022-12-18T15:33:35.764Z,9.85
2022-12-18T15:36:06.064Z,9.30
2022-12-18T15:38:33.757Z,9.15
2022-12-18T15:41:01.765Z,8.50
2022-12-18T15:43:32.827Z,8.30
2022-12-18T15:46:02.525Z,7.70
2022-12-18T15:50:58.825Z,8.57
2022-12-18T15:53:30.476Z,9.77
2022-12-18T15:56:01.128Z,8.55
2022-12-18T15:58:28.984Z,7.90
2022-12-18T16:00:59.545Z,8.95
2022-12-18T16:03:29.287Z,9.32
2022-12-18T16:08:25.298Z,8.60
2022-12-18T16:10:52.908Z,8.82
2022-12-18T16:13:22.004Z,8.82
2022-12-18T16:15:50.631Z,8.50
2022-12-18T16:18:18.580Z,8.32
2022-12-18T16:20:48.628Z,8.65
2022-12-18T16:23:16.230Z,8.98
2022-12-18T16:25:43.715Z,8.40
2022-12-18T16:28:12.068Z,8.38
2022-12-18T16:30:40.176Z,8.82
2022-12-18T16:33:07.825Z,8.82
2022-12-18T16:35:35.547Z,8.23
2022-12-18T16:38:04.515Z,8.25
2022-12-18T16:40:33.364Z,8.48
2022-12-18T16:43:00.828Z,9.60
2022-12-18T16:45:28.467Z,8.80
2022-12-18T16:47:55.926Z,8.85
2022-12-18T16:50:23.400Z,8.63
2022-12-18T16:52:51.069Z,8.45
2022-12-18T16:55:23.788Z,8.23
2022-12-18T16:57:51.305Z,8.52
2022-12-18T17:00:19.176Z,8.05
2022-12-18T17:02:47.201Z,9.68
2022-12-18T17:05:15.086Z,10.05
2022-12-18T17:07:42.669Z,8.68
2022-12-18T17:10:10.770Z,10.25
2022-12-18T17:12:39.891Z,8.63
2022-12-18T17:15:11.769Z,8.05
2022-12-18T17:17:39.311Z,9.43
2022-12-18T17:20:07.912Z,10.02
2022-12-18T17:22:35.401Z,8.60
2022-12-18T17:25:04.191Z,10.30
2022-12-18T17:27:32.042Z,8.20
2022-12-18T17:30:01.037Z,10.00
2022-12-18T17:32:29.814Z,10.95
2022-12-18T17:34:58.250Z,9.50
2022-12-18T17:37:28.037Z,8.77
2022-12-18T17:39:56.111Z,9.32
2022-12-18T17:42:23.535Z,9.40
2022-12-18T17:44:51.176Z,10.20
2022-12-18T17:47:21.074Z,9.32
2022-12-18T17:49:49.164Z,11.02
2022-12-18T17:52:16.840Z,9.93
2022-12-18T17:54:45.129Z,8.80
2022-12-18T17:57:12.968Z,9.07
2022-12-18T17:59:40.563Z,9.65
2022-12-18T18:02:11.057Z,9.30
2022-12-18T18:04:41.210Z,9.23
2022-12-18T18:09:36.666Z,9.02
2022-12-18T18:12:05.193Z,10.25
2022-12-18T18:14:33.833Z,10.18
2022-12-18T18:17:04.360Z,9.80
2022-12-18T18:19:34.162Z,9.50
2022-12-18T18:22:27.084Z,9.77
2022-12-18T18:25:44.614Z,9.50
2022-12-18T18:28:30.217Z,9.00
2022-12-18T18:31:18.637Z,9.48
2022-12-18T18:33:46.666Z,9.50
2022-12-18T18:36:14.804Z,8.45
2022-12-18T18:38:48.179Z,8.35
2022-12-18T18:41:17.092Z,8.75
2022-12-18T18:43:45.149Z,8.75
2022-12-18T18:46:14.595Z,9.05
2022-12-18T18:48:43.708Z,8.40
2022-12-18T18:51:14.667Z,8.75
2022-12-18T18:53:53.271Z,8.38
2022-12-18T18:59:10.107Z,8.30
2022-12-18T19:01:37.700Z,8.77
2022-12-18T19:04:05.781Z,9.18
2022-12-18T19:06:34.241Z,9.20
2022-12-18T19:09:04.383Z,9.13
2022-12-18T19:11:36.389Z,8.13
2022-12-18T19:14:06.213Z,7.53
2022-12-18T19:16:35.495Z,7.97
2022-12-18T19:19:03.725Z,9.32
2022-12-18T19:21:34.265Z,7.82
2022-12-18T19:24:05.261Z,8.55
2022-12-18T19:26:33.173Z,7.90
2022-12-18T19:29:05.209Z,7.80
2022-12-18T19:31:36.085Z,8.07
2022-12-18T19:34:05.500Z,8.07
2022-12-18T19:36:33.804Z,8.13
2022-12-18T19:39:08.245Z,8.70
2022-12-18T19:41:36.071Z,7.68
2022-12-18T19:44:04.844Z,7.60
2022-12-18T19:46:37.122Z,7.22
2022-12-18T19:49:09.694Z,8.27
2022-12-18T19:51:38.269Z,8.10
2022-12-18T19:54:07.349Z,8.05
2022-12-18T19:56:36.236Z,7.63
2022-12-18T19:59:04.476Z,7.57
2022-12-18T20:01:32.409Z,8.38
2022-12-18T20:04:00.465Z,8.32
2022-12-18T20:06:31.375Z,8.13
2022-12-18T20:14:01.316Z,7.90
2022-12-18T20:16:29.232Z,8.55
2022-12-18T20:18:57.125Z,7.82
2022-12-18T20:21:25.284Z,8.23
2022-12-18T20:23:52.806Z,7.88
2022-12-18T20:26:20.275Z,7.47
2022-12-18T20:28:49.213Z,7.45
2022-12-18T20:31:16.703Z,8.38
2022-12-18T20:33:47.544Z,7.35
2022-12-18T20:36:22.091Z,7.70
2022-12-18T20:38:51.419Z,7.85
2022-12-18T20:41:22.309Z,7.75
2022-12-18T20:43:51.819Z,6.95
2022-12-18T20:46:19.503Z,6.60
2022-12-18T20:48:47.341Z,6.47
2022-12-18T20:51:17.030Z,6.75
2022-12-18T20:56:14.830Z,6.60
2022-12-18T20:58:46.182Z,7.38
2022-12-18T21:01:17.050Z,6.80
2022-12-18T21:03:45.694Z,7.53
2022-12-18T21:06:14.041Z,7.18
2022-12-18T21:08:41.746Z,7.15
2022-12-18T21:11:13.623Z,6.93
2022-12-18T21:13:41.332Z,6.93
2022-12-18T21:16:08.806Z,7.18
2022-12-18T21:21:07.214Z,7.03
2022-12-18T21:23:34.712Z,6.63
2022-12-18T21:26:16.265Z,7.20
2022-12-18T21:28:43.714Z,6.80
2022-12-18T21:31:11.500Z,6.25
2022-12-18T21:33:40.886Z,6.75
2022-12-18T21:36:09.246Z,6.90
2022-12-18T21:38:36.722Z,5.97
2022-12-18T21:41:06.886Z,6.60
2022-12-18T21:43:34.421Z,7.00
2022-12-18T21:46:01.983Z,6.32
2022-12-18T21:48:29.486Z,7.00
2022-12-18T21:50:58.350Z,6.88
2022-12-18T21:53:25.773Z,6.63
2022-12-18T21:55:58.290Z,6.63
2022-12-18T21:58:26.567Z,6.00
2022-12-18T22:00:54.009Z,7.28
2022-12-18T22:03:21.614Z,6.82
2022-12-18T22:05:53.321Z,6.55
2022-12-18T22:08:40.439Z,6.75
2022-12-18T22:11:12.913Z,7.05
2022-12-18T22:13:40.716Z,8.57
2022-12-18T22:16:08.465Z,8.80
2022-12-18T22:18:35.926Z,7.47
2022-12-18T22:21:04.173Z,6.78
2022-12-18T22:23:31.725Z,6.53
2022-12-18T22:26:04.544Z,7.53
2022-12-18T22:28:31.979Z,6.43
2022-12-18T22:30:59.859Z,6.35
2022-12-18T22:33:28.242Z,6.07
2022-12-18T22:35:55.828Z,6.00
2022-12-18T22:38:23.268Z,5.60
2022-12-18T22:40:50.694Z,6.13
2022-12-18T22:43:19.617Z,5.57
2022-12-18T22:45:47.270Z,6.10
2022-12-18T22:48:15.429Z,6.05
2022-12-18T22:50:44.452Z,5.57
2022-12-18T22:53:11.957Z,5.38
2022-12-18T22:55:39.414Z,5.97
2022-12-18T22:58:06.851Z,5.68
2022-12-18T23:00:35.693Z,6.65
2022-12-18T23:03:03.287Z,5.67
2022-12-18T23:05:31.440Z,5.38
2022-12-18T23:07:59.453Z,5.47
2022-12-18T23:10:27.028Z,5.18
2022-12-18T23:12:54.459Z,6.03
2022-12-18T23:15:24.216Z,6.03
2022-12-18T23:17:58.645Z,5.22
2022-12-18T23:20:26.238Z,5.35
2022-12-18T23:22:53.704Z,5.05
2022-12-18T23:25:21.162Z,5.07
2022-12-18T23:27:48.593Z,4.85
2022-12-18T23:30:16.115Z,5.43
2022-12-18T23:32:43.577Z,5.10
2022-12-18T23:35:15.540Z,5.30
2022-12-18T23:37:59.212Z,5.13
2022-12-18T23:40:27.830Z,4.03
2022-12-18T23:42:55.248Z,4.65
2022-12-18T23:45:23.269Z,4.75
2022-12-18T23:47:51.122Z,4.68
2022-12-18T23:50:24.012Z,4.63
2022-12-18T23:53:03.265Z,4.35
2022-12-18T23:55:37.588Z,4.82
2022-12-18T23:58:05.040Z,4.10
